createdAt,value
2022-10-31T00:01:31.740Z,82.71
2022-10-31T00:04:00.652Z,82.63
2022-10-31T00:06:29.640Z,82.24
2022-10-31T00:08:59.568Z,82.66
2022-10-31T00:11:30.343Z,82.59
2022-10-31T00:13:59.718Z,82.99
2022-10-31T00:16:29.378Z,83.42
2022-10-31T00:18:59.293Z,83.58
2022-10-31T00:21:29.020Z,83.32
2022-10-31T00:23:57.597Z,83.59
2022-10-31T00:26:25.934Z,83.59
2022-10-31T00:28:55.555Z,83.98
2022-10-31T00:31:24.036Z,83.55
2022-10-31T00:33:52.307Z,83.49
2022-10-31T00:36:21.814Z,83.17
2022-10-31T00:38:51.033Z,83.47
2022-10-31T00:41:20.089Z,83.46
2022-10-31T00:43:48.617Z,83.60
2022-10-31T00:46:18.709Z,83.91
2022-10-31T00:48:47.458Z,83.49
2022-10-31T00:51:16.803Z,83.41
2022-10-31T00:53:47.300Z,83.60
2022-10-31T00:56:15.828Z,84.01
2022-10-31T00:58:44.309Z,83.68
2022-10-31T01:01:12.978Z,84.11
2022-10-31T01:03:43.618Z,83.39
2022-10-31T01:06:15.412Z,83.44
2022-10-31T01:08:44.196Z,83.32
2022-10-31T01:11:17.120Z,83.27
2022-10-31T01:13:46.579Z,83.28
2022-10-31T01:16:17.294Z,83.00
2022-10-31T01:18:47.618Z,83.21
2022-10-31T01:21:18.412Z,83.10
2022-10-31T01:23:47.371Z,83.27
2022-10-31T01:26:17.082Z,83.16
2022-10-31T01:28:50.227Z,83.59
2022-10-31T01:31:19.674Z,83.72
2022-10-31T01:33:49.953Z,83.48
2022-10-31T01:36:21.396Z,83.42
2022-10-31T01:38:53.659Z,83.69
2022-10-31T01:41:25.445Z,83.29
2022-10-31T01:43:55.338Z,83.96
2022-10-31T01:46:26.744Z,84.14
2022-10-31T01:48:58.121Z,84.52
2022-10-31T01:51:31.043Z,84.23
2022-10-31T01:54:03.493Z,84.39
2022-10-31T01:56:31.930Z,84.22
2022-10-31T01:59:03.535Z,83.84
2022-10-31T02:01:32.126Z,83.78
2022-10-31T02:04:02.002Z,83.61
2022-10-31T02:06:46.977Z,83.58
2022-10-31T02:09:16.413Z,83.95
2022-10-31T02:11:46.702Z,84.06
2022-10-31T02:14:15.790Z,83.80
2022-10-31T02:16:44.436Z,83.72
2022-10-31T02:19:20.724Z,83.36
2022-10-31T02:21:55.861Z,83.40
2022-10-31T02:24:43.417Z,83.55
2022-10-31T02:27:38.531Z,83.66
2022-10-31T02:30:26.047Z,83.71
2022-10-31T02:33:27.284Z,83.78
2022-10-31T02:36:20.285Z,83.87
2022-10-31T02:39:18.978Z,83.92
2022-10-31T02:42:04.506Z,83.91
2022-10-31T02:44:50.465Z,83.88
2022-10-31T02:47:53.279Z,84.17
2022-10-31T02:50:29.510Z,84.03
2022-10-31T02:53:12.172Z,83.66
2022-10-31T02:56:03.105Z,83.56
2022-10-31T02:58:40.864Z,83.53
2022-10-31T03:01:38.720Z,83.69
2022-10-31T03:04:46.862Z,83.85
2022-10-31T03:07:37.590Z,83.93
2022-10-31T03:10:28.086Z,84.17
2022-10-31T03:13:04.368Z,83.86
2022-10-31T03:15:37.374Z,83.74
2022-10-31T03:18:10.677Z,84.05
2022-10-31T03:20:48.389Z,84.05
2022-10-31T03:23:21.338Z,83.83
2022-10-31T03:25:56.051Z,84.36
2022-10-31T03:28:32.650Z,84.17
2022-10-31T03:31:06.375Z,84.28
2022-10-31T03:33:42.087Z,84.20
2022-10-31T03:36:16.355Z,84.36
2022-10-31T03:38:49.061Z,84.23
2022-10-31T03:41:24.388Z,84.52
2022-10-31T03:43:59.888Z,84.51
2022-10-31T03:46:29.044Z,84.91
2022-10-31T03:49:00.342Z,85.06
2022-10-31T03:51:35.651Z,84.79
2022-10-31T03:54:15.939Z,84.93
2022-10-31T03:56:50.318Z,84.74
2022-10-31T03:59:23.975Z,84.75
2022-10-31T04:01:57.739Z,84.72
2022-10-31T04:04:27.288Z,84.80
2022-10-31T04:06:58.584Z,85.10
2022-10-31T04:09:30.663Z,85.45
2022-10-31T04:12:02.204Z,85.38
2022-10-31T04:14:51.644Z,85.70
2022-10-31T04:17:23.773Z,86.30
2022-10-31T04:19:52.222Z,86.24
2022-10-31T04:22:20.512Z,85.92
2022-10-31T04:24:50.137Z,86.38
2022-10-31T04:27:19.594Z,86.50
2022-10-31T04:29:50.744Z,86.88
2022-10-31T04:32:19.929Z,86.67
2022-10-31T04:34:48.183Z,87.20
2022-10-31T04:37:16.860Z,87.21
2022-10-31T04:39:45.584Z,86.56
2022-10-31T04:42:34.402Z,86.48
2022-10-31T04:45:06.713Z,86.60
2022-10-31T04:47:36.447Z,86.69
2022-10-31T04:50:05.740Z,87.25
2022-10-31T04:52:41.352Z,87.52
2022-10-31T04:55:11.849Z,87.37
2022-10-31T04:58:01.293Z,86.98
2022-10-31T05:00:30.043Z,87.00
2022-10-31T05:03:00.561Z,87.21
2022-10-31T05:05:31.927Z,87.46
2022-10-31T05:08:03.217Z,87.26
2022-10-31T05:10:33.640Z,87.57
2022-10-31T05:13:06.289Z,87.88
2022-10-31T05:15:35.302Z,87.78
2022-10-31T05:18:22.712Z,87.64
2022-10-31T05:21:11.568Z,87.72
2022-10-31T05:23:48.447Z,87.42
2022-10-31T05:26:19.806Z,88.03
2022-10-31T05:28:51.607Z,87.52
2022-10-31T05:31:20.277Z,87.79
2022-10-31T05:33:50.292Z,87.36
2022-10-31T05:36:27.483Z,87.32
2022-10-31T05:38:59.787Z,87.33
2022-10-31T05:41:33.260Z,87.05
2022-10-31T05:44:15.006Z,87.07
2022-10-31T05:46:55.808Z,87.03
2022-10-31T05:49:27.048Z,86.88
2022-10-31T05:52:13.716Z,86.64
2022-10-31T05:54:50.531Z,86.62
2022-10-31T05:57:19.200Z,86.85
2022-10-31T05:59:53.872Z,86.55
2022-10-31T06:02:24.435Z,86.63
2022-10-31T06:05:13.173Z,86.62
2022-10-31T06:07:41.526Z,86.64
2022-10-31T06:10:11.515Z,86.71
2022-10-31T06:12:41.699Z,86.75
2022-10-31T06:15:24.101Z,86.92
2022-10-31T06:18:01.618Z,86.71
2022-10-31T06:20:32.672Z,86.82
2022-10-31T06:23:07.025Z,87.23
2022-10-31T06:25:37.314Z,87.09
2022-10-31T06:28:07.038Z,86.86
2022-10-31T06:30:56.372Z,86.81
2022-10-31T06:33:25.334Z,87.29
2022-10-31T06:35:57.492Z,87.36
2022-10-31T06:38:28.275Z,87.18
2022-10-31T06:40:57.825Z,87.20
2022-10-31T06:43:29.310Z,86.97
2022-10-31T06:46:24.099Z,86.80
2022-10-31T06:49:11.477Z,86.58
2022-10-31T06:51:44.589Z,86.29
2022-10-31T06:54:15.089Z,86.46
2022-10-31T06:56:43.787Z,86.16
2022-10-31T06:59:12.455Z,85.55
2022-10-31T07:02:12.566Z,85.89
2022-10-31T07:04:43.401Z,86.51
2022-10-31T07:07:15.316Z,86.60
2022-10-31T07:09:43.872Z,86.63
2022-10-31T07:12:15.684Z,86.76
2022-10-31T07:14:50.985Z,86.87
2022-10-31T07:17:20.867Z,86.81
2022-10-31T07:19:49.133Z,86.96
2022-10-31T07:22:18.884Z,86.75
2022-10-31T07:24:48.368Z,86.61
2022-10-31T07:27:42.571Z,86.92
2022-10-31T07:30:14.580Z,86.38
2022-10-31T07:32:45.906Z,86.41
2022-10-31T07:35:18.245Z,86.05
2022-10-31T07:37:53.347Z,85.85
2022-10-31T07:40:21.824Z,86.00
2022-10-31T07:42:52.055Z,85.84
2022-10-31T07:45:40.705Z,85.58
2022-10-31T07:48:30.534Z,85.34
2022-10-31T07:51:21.482Z,84.69
2022-10-31T07:54:24.837Z,83.76
2022-10-31T07:56:53.525Z,83.51
2022-10-31T07:59:21.663Z,83.65
2022-10-31T08:01:50.265Z,83.57
2022-10-31T08:04:42.884Z,83.49
2022-10-31T08:07:30.612Z,83.86
2022-10-31T08:10:06.006Z,83.74
2022-10-31T08:12:35.937Z,84.11
2022-10-31T08:15:06.852Z,83.82
2022-10-31T08:17:37.847Z,84.23
2022-10-31T08:20:08.398Z,84.38
2022-10-31T08:22:44.123Z,84.13
2022-10-31T08:25:13.199Z,83.99
2022-10-31T08:27:41.371Z,83.63
2022-10-31T08:30:17.691Z,83.71
2022-10-31T08:33:06.701Z,83.60
2022-10-31T08:35:55.070Z,83.89
2022-10-31T08:38:43.381Z,83.32
2022-10-31T08:41:12.749Z,83.29
2022-10-31T08:43:41.432Z,83.20
2022-10-31T08:46:10.066Z,83.30
2022-10-31T08:48:39.536Z,83.51
2022-10-31T08:51:13.597Z,83.65
2022-10-31T08:53:41.987Z,84.20
2022-10-31T08:56:29.300Z,81.00
2022-10-31T08:58:58.175Z,77.72
2022-10-31T09:01:35.723Z,74.81
2022-10-31T09:04:07.250Z,73.13
2022-10-31T09:06:38.147Z,71.36
2022-10-31T09:09:06.985Z,69.36
2022-10-31T09:11:35.485Z,68.89
2022-10-31T09:14:32.484Z,67.71
2022-10-31T09:17:25.219Z,66.84
2022-10-31T09:20:16.654Z,65.89
2022-10-31T09:22:46.929Z,64.09
2022-10-31T09:25:15.631Z,63.67
2022-10-31T09:27:50.312Z,64.61
2022-10-31T09:30:18.556Z,64.37
2022-10-31T09:32:46.757Z,62.62
2022-10-31T09:35:15.890Z,64.06
2022-10-31T09:37:47.284Z,66.56
2022-10-31T09:40:15.599Z,68.45
2022-10-31T09:42:59.945Z,68.33
2022-10-31T09:45:34.790Z,69.36
2022-10-31T09:48:23.791Z,70.41
2022-10-31T09:51:17.668Z,71.64
2022-10-31T09:54:03.956Z,71.75
2022-10-31T09:56:35.956Z,71.90
2022-10-31T09:59:07.317Z,71.52
2022-10-31T10:01:45.699Z,71.44
2022-10-31T10:04:37.239Z,71.33
2022-10-31T10:07:42.927Z,71.17
2022-10-31T10:10:20.099Z,70.19
2022-10-31T10:13:33.626Z,69.77
2022-10-31T10:16:20.502Z,69.21
2022-10-31T10:19:05.500Z,69.67
2022-10-31T10:21:45.701Z,68.80
2022-10-31T10:24:25.844Z,69.16
2022-10-31T10:27:06.731Z,68.97
2022-10-31T10:29:41.417Z,69.31
2022-10-31T10:32:16.636Z,68.94
2022-10-31T10:34:49.992Z,69.40
2022-10-31T10:37:26.377Z,70.19
2022-10-31T10:40:02.489Z,69.68
2022-10-31T10:42:49.731Z,69.91
2022-10-31T10:45:38.417Z,70.11
2022-10-31T10:48:14.951Z,70.45
2022-10-31T10:50:49.945Z,70.29
2022-10-31T10:53:50.153Z,70.46
2022-10-31T10:56:23.019Z,70.57
2022-10-31T10:58:59.737Z,70.31
2022-10-31T11:01:29.125Z,70.41
2022-10-31T11:03:57.357Z,70.15
2022-10-31T11:06:28.406Z,69.99
2022-10-31T11:08:57.785Z,69.23
2022-10-31T11:11:30.656Z,69.21
2022-10-31T11:14:05.551Z,68.82
2022-10-31T11:16:40.950Z,68.95
2022-10-31T11:19:19.900Z,68.48
2022-10-31T11:21:53.602Z,68.38
2022-10-31T11:24:23.847Z,68.80
2022-10-31T11:26:53.431Z,68.66
2022-10-31T11:29:26.063Z,68.70
2022-10-31T11:31:57.392Z,69.04
2022-10-31T11:34:32.003Z,69.38
2022-10-31T11:37:05.564Z,68.93
2022-10-31T11:39:33.931Z,69.14
2022-10-31T11:42:08.887Z,69.15
2022-10-31T11:44:44.328Z,69.03
2022-10-31T11:47:17.588Z,68.95
2022-10-31T11:49:50.532Z,68.93
2022-10-31T11:52:23.740Z,69.06
2022-10-31T11:54:55.558Z,68.59
2022-10-31T11:57:29.529Z,69.41
2022-10-31T12:00:01.288Z,69.86
2022-10-31T12:02:31.658Z,70.11
2022-10-31T12:05:06.966Z,70.60
2022-10-31T12:07:35.229Z,70.98
2022-10-31T12:10:03.543Z,71.60
2022-10-31T12:12:59.156Z,72.31
2022-10-31T12:15:35.363Z,72.57
2022-10-31T12:18:30.634Z,73.50
2022-10-31T12:21:11.065Z,73.54
2022-10-31T12:23:50.309Z,73.99
2022-10-31T12:26:24.121Z,74.76
2022-10-31T12:29:16.839Z,75.60
2022-10-31T12:31:51.780Z,76.46
2022-10-31T12:34:50.136Z,76.26
2022-10-31T12:37:29.340Z,76.59
2022-10-31T12:40:10.262Z,76.60
2022-10-31T12:42:50.189Z,76.58
2022-10-31T12:45:40.875Z,77.08
2022-10-31T12:48:32.995Z,76.59
2022-10-31T12:51:12.200Z,76.94
2022-10-31T12:53:56.410Z,77.21
2022-10-31T12:56:38.279Z,77.66
2022-10-31T12:59:13.168Z,77.79
2022-10-31T13:01:46.660Z,77.79
2022-10-31T13:04:20.697Z,78.02
2022-10-31T13:06:55.244Z,78.21
2022-10-31T13:09:30.921Z,78.24
2022-10-31T13:12:03.010Z,78.60
2022-10-31T13:14:35.842Z,78.87
2022-10-31T13:17:05.169Z,78.91
2022-10-31T13:19:40.658Z,78.52
2022-10-31T13:22:12.128Z,78.69
2022-10-31T13:24:45.101Z,78.86
2022-10-31T13:27:20.221Z,79.88
2022-10-31T13:29:59.078Z,80.13
2022-10-31T13:32:31.102Z,80.34
2022-10-31T13:35:01.974Z,80.19
2022-10-31T13:37:39.149Z,80.33
2022-10-31T13:40:21.665Z,80.99
2022-10-31T13:42:55.537Z,82.50
2022-10-31T13:45:25.743Z,82.47
2022-10-31T13:48:02.495Z,83.62
2022-10-31T13:50:35.184Z,83.58
2022-10-31T13:53:12.888Z,84.59
2022-10-31T13:55:44.455Z,85.35
2022-10-31T13:58:34.150Z,84.76
2022-10-31T14:01:17.692Z,84.35
2022-10-31T14:04:05.043Z,84.31
2022-10-31T14:06:47.939Z,84.61
2022-10-31T14:09:27.869Z,84.30
2022-10-31T14:11:58.285Z,84.03
2022-10-31T14:14:32.213Z,83.96
2022-10-31T14:17:01.396Z,83.63
2022-10-31T14:19:29.938Z,83.74
2022-10-31T14:22:01.571Z,83.77
2022-10-31T14:24:35.794Z,83.41
2022-10-31T14:27:08.563Z,83.57
2022-10-31T14:29:36.866Z,83.63
2022-10-31T14:32:12.043Z,83.97
2022-10-31T14:34:44.515Z,83.85
2022-10-31T14:37:58.103Z,83.61
2022-10-31T14:40:33.549Z,83.44
2022-10-31T14:43:21.001Z,83.61
2022-10-31T14:45:58.561Z,83.42
2022-10-31T14:48:50.261Z,83.17
2022-10-31T14:51:22.821Z,83.27
2022-10-31T14:53:53.512Z,82.91
2022-10-31T14:56:28.279Z,83.05
2022-10-31T14:59:00.042Z,82.74
2022-10-31T15:01:30.712Z,83.13
2022-10-31T15:04:22.620Z,83.03
2022-10-31T15:06:55.110Z,83.09
2022-10-31T15:09:25.059Z,82.83
2022-10-31T15:11:54.878Z,83.38
2022-10-31T15:14:26.317Z,83.67
2022-10-31T15:16:54.805Z,84.30
2022-10-31T15:19:25.936Z,84.75
2022-10-31T15:21:56.585Z,85.58
2022-10-31T15:24:27.668Z,86.31
2022-10-31T15:27:03.799Z,86.74
2022-10-31T15:29:33.797Z,86.68
2022-10-31T15:32:03.849Z,86.71
2022-10-31T15:34:39.616Z,86.91
2022-10-31T15:37:14.873Z,86.77
2022-10-31T15:39:44.442Z,86.49
2022-10-31T15:42:23.165Z,87.04
2022-10-31T15:44:55.257Z,86.83
2022-10-31T15:47:26.006Z,86.88
2022-10-31T15:49:56.763Z,86.41
2022-10-31T15:52:32.126Z,86.34
2022-10-31T15:55:03.642Z,86.43
2022-10-31T15:57:33.741Z,86.08
2022-10-31T16:00:01.988Z,86.26
2022-10-31T16:02:30.396Z,86.45
2022-10-31T16:05:01.565Z,86.75
2022-10-31T16:07:31.053Z,86.59
2022-10-31T16:10:02.053Z,86.63
2022-10-31T16:12:37.052Z,86.29
2022-10-31T16:15:07.500Z,86.55
2022-10-31T16:17:36.260Z,86.37
2022-10-31T16:20:08.842Z,86.20
2022-10-31T16:22:39.755Z,86.39
2022-10-31T16:25:15.199Z,86.53
2022-10-31T16:27:54.247Z,86.42
2022-10-31T16:30:41.724Z,86.46
2022-10-31T16:33:26.775Z,85.76
2022-10-31T16:35:59.716Z,85.59
2022-10-31T16:38:37.761Z,84.94
2022-10-31T16:41:06.904Z,84.63
2022-10-31T16:43:37.272Z,83.32
2022-10-31T16:46:06.196Z,83.10
2022-10-31T16:48:34.462Z,82.66
2022-10-31T16:51:03.209Z,82.11
2022-10-31T16:53:32.356Z,82.09
2022-10-31T16:56:03.523Z,81.97
2022-10-31T16:58:34.449Z,82.22
2022-10-31T17:01:07.273Z,81.78
2022-10-31T17:03:37.917Z,81.43
2022-10-31T17:06:07.133Z,81.19
2022-10-31T17:08:35.884Z,80.65
2022-10-31T17:11:04.687Z,80.49
2022-10-31T17:13:35.829Z,80.52
2022-10-31T17:16:06.542Z,80.56
2022-10-31T17:18:34.867Z,80.62
2022-10-31T17:21:06.279Z,80.64
2022-10-31T17:23:34.927Z,80.73
2022-10-31T17:26:03.176Z,80.98
2022-10-31T17:28:31.477Z,80.83
2022-10-31T17:30:59.677Z,80.55
2022-10-31T17:33:29.542Z,80.50
2022-10-31T17:35:57.823Z,80.40
2022-10-31T17:38:26.118Z,80.14
2022-10-31T17:40:54.388Z,80.04
2022-10-31T17:43:27.269Z,80.12
2022-10-31T17:45:55.570Z,80.09
2022-10-31T17:48:23.886Z,79.37
2022-10-31T17:50:53.585Z,78.90
2022-10-31T17:53:22.254Z,78.94
2022-10-31T17:55:50.481Z,79.22
2022-10-31T17:58:19.015Z,79.25
2022-10-31T18:00:50.493Z,77.96
2022-10-31T18:03:20.783Z,77.21
2022-10-31T18:05:55.529Z,77.20
2022-10-31T18:08:28.908Z,76.61
2022-10-31T18:11:00.105Z,75.61
2022-10-31T18:13:29.370Z,75.69
2022-10-31T18:15:57.601Z,74.66
2022-10-31T18:18:25.929Z,74.73
2022-10-31T18:20:58.668Z,74.74
2022-10-31T18:23:26.968Z,74.65
2022-10-31T18:25:55.954Z,75.82
2022-10-31T18:28:24.360Z,74.67
2022-10-31T18:30:52.756Z,73.99
2022-10-31T18:33:22.484Z,74.09
2022-10-31T18:35:50.728Z,73.80
2022-10-31T18:38:21.163Z,73.88
2022-10-31T18:40:49.852Z,74.03
2022-10-31T18:43:18.206Z,74.02
2022-10-31T18:45:48.769Z,73.84
2022-10-31T18:48:19.680Z,74.37
2022-10-31T18:50:47.896Z,74.92
2022-10-31T18:53:16.525Z,74.44
2022-10-31T18:55:49.966Z,74.22
2022-10-31T18:58:18.708Z,74.28
2022-10-31T19:00:48.983Z,74.42
2022-10-31T19:03:21.935Z,74.88
2022-10-31T19:05:55.898Z,74.68
2022-10-31T19:08:24.402Z,75.20
2022-10-31T19:10:54.069Z,74.76
2022-10-31T19:13:22.358Z,74.79
2022-10-31T19:15:50.607Z,75.06
2022-10-31T19:18:19.579Z,74.26
2022-10-31T19:20:47.768Z,74.16
2022-10-31T19:23:17.550Z,74.46
2022-10-31T19:25:45.806Z,74.80
2022-10-31T19:28:15.496Z,74.89
2022-10-31T19:30:43.724Z,75.04
2022-10-31T19:33:11.993Z,74.83
2022-10-31T19:35:40.268Z,74.39
2022-10-31T19:38:08.526Z,73.25
2022-10-31T19:40:37.770Z,73.00
2022-10-31T19:43:06.507Z,72.78
2022-10-31T19:45:37.011Z,72.55
2022-10-31T19:48:05.863Z,71.72
2022-10-31T19:50:34.453Z,71.79
2022-10-31T19:53:04.087Z,71.46
2022-10-31T19:55:32.255Z,71.06
2022-10-31T19:58:02.129Z,70.80
2022-10-31T20:00:41.971Z,71.30
2022-10-31T20:03:11.598Z,70.11
2022-10-31T20:05:43.451Z,69.49
2022-10-31T20:08:16.858Z,69.25
2022-10-31T20:10:55.710Z,69.38
2022-10-31T20:13:25.036Z,69.50
2022-10-31T20:16:00.079Z,68.58
2022-10-31T20:18:29.715Z,68.43
2022-10-31T20:21:04.852Z,68.21
2022-10-31T20:23:34.079Z,67.59
2022-10-31T20:26:02.769Z,67.67
2022-10-31T20:28:31.542Z,67.86
2022-10-31T20:31:02.493Z,67.81
2022-10-31T20:33:30.945Z,67.80
2022-10-31T20:35:59.355Z,67.58
2022-10-31T20:38:27.597Z,67.12
2022-10-31T20:41:01.269Z,67.36
2022-10-31T20:43:31.802Z,65.55
2022-10-31T20:46:07.528Z,64.92
2022-10-31T20:48:36.465Z,65.02
2022-10-31T20:51:09.131Z,64.06
2022-10-31T20:53:37.426Z,64.12
2022-10-31T20:56:07.903Z,64.02
2022-10-31T20:58:36.750Z,64.57
2022-10-31T21:01:09.638Z,64.88
2022-10-31T21:03:37.968Z,65.21
2022-10-31T21:06:06.729Z,66.09
2022-10-31T21:08:35.896Z,66.03
2022-10-31T21:11:08.029Z,65.69
2022-10-31T21:13:40.707Z,66.18
2022-10-31T21:16:12.771Z,65.13
2022-10-31T21:18:42.816Z,65.39
2022-10-31T21:21:12.996Z,64.90
2022-10-31T21:23:41.488Z,65.01
2022-10-31T21:26:13.006Z,65.22
2022-10-31T21:28:41.563Z,65.73
2022-10-31T21:31:12.951Z,65.63
2022-10-31T21:33:43.803Z,65.45
2022-10-31T21:36:13.714Z,65.98
2022-10-31T21:38:42.296Z,66.31
2022-10-31T21:41:12.557Z,66.11
2022-10-31T21:43:43.393Z,66.13
2022-10-31T21:46:15.720Z,65.34
2022-10-31T21:48:44.927Z,64.29
2022-10-31T21:51:15.207Z,63.38
2022-10-31T21:54:01.595Z,63.32
2022-10-31T21:56:29.887Z,63.56
2022-10-31T21:59:00.199Z,63.69
2022-10-31T22:01:30.943Z,63.86
2022-10-31T22:04:00.694Z,64.40
2022-10-31T22:06:30.197Z,64.86
2022-10-31T22:09:00.768Z,65.20
2022-10-31T22:11:29.434Z,65.73
2022-10-31T22:14:01.071Z,65.74
2022-10-31T22:16:32.110Z,66.03
2022-10-31T22:19:05.728Z,66.27
2022-10-31T22:21:39.364Z,66.81
2022-10-31T22:24:10.420Z,67.22
2022-10-31T22:26:40.801Z,66.89
2022-10-31T22:29:13.260Z,66.09
2022-10-31T22:31:43.892Z,64.95
2022-10-31T22:34:12.891Z,65.43
2022-10-31T22:36:41.503Z,65.34
2022-10-31T22:39:12.663Z,65.28
2022-10-31T22:41:41.407Z,65.83
2022-10-31T22:44:10.096Z,66.07
2022-10-31T22:46:39.949Z,66.45
2022-10-31T22:49:13.989Z,66.91
2022-10-31T22:51:43.134Z,66.97
2022-10-31T22:54:14.736Z,67.40
2022-10-31T22:56:43.316Z,67.34
2022-10-31T22:59:13.689Z,67.58
2022-10-31T23:01:42.357Z,67.85
2022-10-31T23:06:45.628Z,68.64
2022-10-31T23:09:16.438Z,68.95
2022-10-31T23:11:46.986Z,69.18
2022-10-31T23:14:19.308Z,69.80
2022-10-31T23:16:49.165Z,70.42
2022-10-31T23:19:20.511Z,70.57
2022-10-31T23:21:59.811Z,70.66
2022-10-31T23:24:33.027Z,71.03
2022-10-31T23:27:09.725Z,71.47
2022-10-31T23:29:44.341Z,71.28
2022-10-31T23:32:16.405Z,71.54
2022-10-31T23:34:47.115Z,71.86
2022-10-31T23:37:17.036Z,71.84
2022-10-31T23:39:45.547Z,71.77
2022-10-31T23:42:15.649Z,71.45
2022-10-31T23:44:44.326Z,71.52
2022-10-31T23:47:14.061Z,71.73
2022-10-31T23:49:42.576Z,71.58
2022-10-31T23:52:13.148Z,71.78
2022-10-31T23:54:41.632Z,71.64
2022-10-31T23:57:11.328Z,71.67
2022-10-31T23:59:39.611Z,71.89
